sensor_id;sensor_type;location;lat;lon;timestamp;temperature;humidity
2130;DHT22;1071;52.544;13.374;2023-07-20T00:00:59;20.10;99.90
2130;DHT22;1071;52.544;13.374;2023-07-20T00:03:27;20.00;99.90
2130;DHT22;1071;52.544;13.374;2023-07-20T00:05:54;20.00;99.90
2130;DHT22;1071;52.544;13.374;2023-07-20T00:08:21;20.00;99.90
2130;DHT22;1071;52.544;13.374;2023-07-20T00:10:48;20.00;99.90
2130;DHT22;1071;52.544;13.374;2023-07-20T00:13:15;20.00;99.90
2130;DHT22;1071;52.544;13.374;2023-07-20T00:15:44;20.00;99.90
2130;DHT22;1071;52.544;13.374;2023-07-20T00:18:11;19.90;99.90
2130;DHT22;1071;52.544;13.374;2023-07-20T00:20:40;19.90;99.90
2130;DHT22;1071;52.544;13.374;2023-07-20T00:23:07;19.80;99.90
2130;DHT22;1071;52.544;13.374;2023-07-20T00:25:34;19.80;99.90
2130;DHT22;1071;52.544;13.374;2023-07-20T00:28:02;19.80;99.90
2130;DHT22;1071;52.544;13.374;2023-07-20T00:30:29;19.70;99.90
2130;DHT22;1071;52.544;13.374;2023-07-20T00:32:56;19.70;99.90
2130;DHT22;1071;52.544;13.374;2023-07-20T00:35:23;19.70;99.90
2130;DHT22;1071;52.544;13.374;2023-07-20T00:37:51;19.70;99.90
2130;DHT22;1071;52.544;13.374;2023-07-20T00:40:19;19.70;99.90
2130;DHT22;1071;52.544;13.374;2023-07-20T00:42:46;19.60;99.90
2130;DHT22;1071;52.544;13.374;2023-07-20T00:45:13;19.60;99.90
2130;DHT22;1071;52.544;13.374;2023-07-20T00:47:40;19.60;99.90
2130;DHT22;1071;52.544;13.374;2023-07-20T00:50:08;19.60;99.90
2130;DHT22;1071;52.544;13.374;2023-07-20T00:52:38;19.60;99.90
2130;DHT22;1071;52.544;13.374;2023-07-20T00:55:09;19.50;99.90
2130;DHT22;1071;52.544;13.374;2023-07-20T00:57:37;19.60;99.90
2130;DHT22;1071;52.544;13.374;2023-07-20T01:00:05;19.50;99.90
2130;DHT22;1071;52.544;13.374;2023-07-20T01:02:33;19.50;99.90
2130;DHT22;1071;52.544;13.374;2023-07-20T01:05:00;19.50;99.90
2130;DHT22;1071;52.544;13.374;2023-07-20T01:07:32;19.60;99.90
2130;DHT22;1071;52.544;13.374;2023-07-20T01:10:10;19.50;99.90
2130;DHT22;1071;52.544;13.374;2023-07-20T01:12:42;19.50;99.90
2130;DHT22;1071;52.544;13.374;2023-07-20T01:15:09;19.50;99.90
2130;DHT22;1071;52.544;13.374;2023-07-20T01:17:37;19.50;99.90
2130;DHT22;1071;52.544;13.374;2023-07-20T01:20:05;19.50;99.90
2130;DHT22;1071;52.544;13.374;2023-07-20T01:22:58;19.50;99.90
2130;DHT22;1071;52.544;13.374;2023-07-20T01:25:40;19.50;99.90
2130;DHT22;1071;52.544;13.374;2023-07-20T01:28:37;19.50;99.90
2130;DHT22;1071;52.544;13.374;2023-07-20T01:31:17;19.60;99.90
2130;DHT22;1071;52.544;13.374;2023-07-20T01:33:46;19.50;99.90
2130;DHT22;1071;52.544;13.374;2023-07-20T01:36:14;19.50;99.90
2130;DHT22;1071;52.544;13.374;2023-07-20T01:38:43;19.50;99.90
2130;DHT22;1071;52.544;13.374;2023-07-20T01:41:10;19.50;99.90
2130;DHT22;1071;52.544;13.374;2023-07-20T01:43:37;19.40;99.90
2130;DHT22;1071;52.544;13.374;2023-07-20T01:46:04;19.50;99.90
2130;DHT22;1071;52.544;13.374;2023-07-20T01:48:32;19.40;99.90
2130;DHT22;1071;52.544;13.374;2023-07-20T01:50:59;19.40;99.90
2130;DHT22;1071;52.544;13.374;2023-07-20T01:53:26;19.40;99.90
2130;DHT22;1071;52.544;13.374;2023-07-20T01:55:53;19.30;99.90
2130;DHT22;1071;52.544;13.374;2023-07-20T01:58:20;19.30;99.90
2130;DHT22;1071;52.544;13.374;2023-07-20T02:00:47;19.40;99.90
2130;DHT22;1071;52.544;13.374;2023-07-20T02:03:14;19.30;99.90
2130;DHT22;1071;52.544;13.374;2023-07-20T02:05:43;19.30;99.90
2130;DHT22;1071;52.544;13.374;2023-07-20T02:08:10;19.30;99.90
2130;DHT22;1071;52.544;13.374;2023-07-20T02:10:37;19.30;99.90
2130;DHT22;1071;52.544;13.374;2023-07-20T02:13:10;19.30;99.90
2130;DHT22;1071;52.544;13.374;2023-07-20T02:15:44;19.30;99.90
2130;DHT22;1071;52.544;13.374;2023-07-20T02:18:12;19.30;99.90
2130;DHT22;1071;52.544;13.374;2023-07-20T02:20:40;19.30;99.90
2130;DHT22;1071;52.544;13.374;2023-07-20T02:23:10;19.30;99.90
2130;DHT22;1071;52.544;13.374;2023-07-20T02:25:37;19.30;99.90
2130;DHT22;1071;52.544;13.374;2023-07-20T02:28:06;19.30;99.90
2130;DHT22;1071;52.544;13.374;2023-07-20T02:30:33;19.30;99.90
2130;DHT22;1071;52.544;13.374;2023-07-20T02:33:03;19.20;99.90
2130;DHT22;1071;52.544;13.374;2023-07-20T02:35:31;19.20;99.90
2130;DHT22;1071;52.544;13.374;2023-07-20T02:37:58;19.20;99.90
2130;DHT22;1071;52.544;13.374;2023-07-20T02:40:26;19.20;99.90
2130;DHT22;1071;52.544;13.374;2023-07-20T02:42:53;19.20;99.90
2130;DHT22;1071;52.544;13.374;2023-07-20T02:45:20;19.20;99.90
2130;DHT22;1071;52.544;13.374;2023-07-20T02:47:47;19.20;99.90
2130;DHT22;1071;52.544;13.374;2023-07-20T02:50:14;19.20;99.90
2130;DHT22;1071;52.544;13.374;2023-07-20T02:52:41;19.20;99.90
2130;DHT22;1071;52.544;13.374;2023-07-20T02:55:08;19.20;99.90
2130;DHT22;1071;52.544;13.374;2023-07-20T02:57:37;19.20;99.90
2130;DHT22;1071;52.544;13.374;2023-07-20T03:00:04;19.20;99.90
2130;DHT22;1071;52.544;13.374;2023-07-20T03:02:32;19.20;99.90
2130;DHT22;1071;52.544;13.374;2023-07-20T03:04:59;19.20;99.90
2130;DHT22;1071;52.544;13.374;2023-07-20T03:07:27;19.20;99.90
2130;DHT22;1071;52.544;13.374;2023-07-20T03:09:56;19.20;99.90
2130;DHT22;1071;52.544;13.374;2023-07-20T03:12:23;19.20;99.90
2130;DHT22;1071;52.544;13.374;2023-07-20T03:14:52;19.10;99.90
2130;DHT22;1071;52.544;13.374;2023-07-20T03:17:19;19.10;99.90
2130;DHT22;1071;52.544;13.374;2023-07-20T03:19:46;19.10;99.90
2130;DHT22;1071;52.544;13.374;2023-07-20T03:22:13;19.10;99.90
2130;DHT22;1071;52.544;13.374;2023-07-20T03:24:40;19.10;99.90
2130;DHT22;1071;52.544;13.374;2023-07-20T03:27:07;19.10;99.90
2130;DHT22;1071;52.544;13.374;2023-07-20T03:29:34;19.10;99.90
2130;DHT22;1071;52.544;13.374;2023-07-20T03:32:03;19.10;99.90
2130;DHT22;1071;52.544;13.374;2023-07-20T03:34:30;19.10;99.90
2130;DHT22;1071;52.544;13.374;2023-07-20T03:36:57;19.10;99.90
2130;DHT22;1071;52.544;13.374;2023-07-20T03:39:24;19.10;99.90
2130;DHT22;1071;52.544;13.374;2023-07-20T03:41:51;19.10;99.90
2130;DHT22;1071;52.544;13.374;2023-07-20T03:44:18;19.10;99.90
2130;DHT22;1071;52.544;13.374;2023-07-20T03:46:45;19.10;99.90
2130;DHT22;1071;52.544;13.374;2023-07-20T03:49:13;19.10;99.90
2130;DHT22;1071;52.544;13.374;2023-07-20T03:51:40;19.10;99.90
2130;DHT22;1071;52.544;13.374;2023-07-20T03:54:07;19.10;99.90
2130;DHT22;1071;52.544;13.374;2023-07-20T03:56:35;19.10;99.90
2130;DHT22;1071;52.544;13.374;2023-07-20T03:59:02;19.10;99.90
2130;DHT22;1071;52.544;13.374;2023-07-20T04:01:29;19.20;99.90
2130;DHT22;1071;52.544;13.374;2023-07-20T04:04:06;19.10;99.90
2130;DHT22;1071;52.544;13.374;2023-07-20T04:06:35;19.10;99.90
2130;DHT22;1071;52.544;13.374;2023-07-20T04:09:03;19.10;99.90
2130;DHT22;1071;52.544;13.374;2023-07-20T04:11:31;19.10;99.90
2130;DHT22;1071;52.544;13.374;2023-07-20T04:13:58;19.10;99.90
2130;DHT22;1071;52.544;13.374;2023-07-20T04:16:25;19.10;99.90
2130;DHT22;1071;52.544;13.374;2023-07-20T04:18:54;19.10;99.90
2130;DHT22;1071;52.544;13.374;2023-07-20T04:21:22;19.20;99.90
2130;DHT22;1071;52.544;13.374;2023-07-20T04:23:50;19.20;99.90
2130;DHT22;1071;52.544;13.374;2023-07-20T04:26:17;19.20;99.90
2130;DHT22;1071;52.544;13.374;2023-07-20T04:28:44;19.20;99.90
2130;DHT22;1071;52.544;13.374;2023-07-20T04:31:13;19.20;99.90
2130;DHT22;1071;52.544;13.374;2023-07-20T04:33:40;19.20;99.90
2130;DHT22;1071;52.544;13.374;2023-07-20T04:36:08;19.20;99.90
2130;DHT22;1071;52.544;13.374;2023-07-20T04:38:35;19.20;99.90
2130;DHT22;1071;52.544;13.374;2023-07-20T04:41:03;19.20;99.90
2130;DHT22;1071;52.544;13.374;2023-07-20T04:43:30;19.20;99.90
2130;DHT22;1071;52.544;13.374;2023-07-20T04:45:57;19.20;99.90
2130;DHT22;1071;52.544;13.374;2023-07-20T04:48:24;19.30;99.90
2130;DHT22;1071;52.544;13.374;2023-07-20T04:50:51;19.30;99.90
2130;DHT22;1071;52.544;13.374;2023-07-20T04:53:18;19.30;99.90
2130;DHT22;1071;52.544;13.374;2023-07-20T04:55:49;19.30;99.90
2130;DHT22;1071;52.544;13.374;2023-07-20T04:58:22;19.30;99.90
2130;DHT22;1071;52.544;13.374;2023-07-20T05:00:49;19.30;99.90
2130;DHT22;1071;52.544;13.374;2023-07-20T05:03:16;19.30;99.90
2130;DHT22;1071;52.544;13.374;2023-07-20T05:05:43;19.40;99.90
2130;DHT22;1071;52.544;13.374;2023-07-20T05:08:10;19.40;99.90
2130;DHT22;1071;52.544;13.374;2023-07-20T05:10:37;19.40;99.90
2130;DHT22;1071;52.544;13.374;2023-07-20T05:13:04;19.50;99.90
2130;DHT22;1071;52.544;13.374;2023-07-20T05:15:34;19.50;99.90
2130;DHT22;1071;52.544;13.374;2023-07-20T05:18:01;19.60;99.90
2130;DHT22;1071;52.544;13.374;2023-07-20T05:20:28;19.60;99.90
2130;DHT22;1071;52.544;13.374;2023-07-20T05:22:57;19.60;99.90
2130;DHT22;1071;52.544;13.374;2023-07-20T05:25:24;19.60;99.90
2130;DHT22;1071;52.544;13.374;2023-07-20T05:27:51;19.60;99.90
2130;DHT22;1071;52.544;13.374;2023-07-20T05:30:21;19.70;99.90
2130;DHT22;1071;52.544;13.374;2023-07-20T05:32:49;19.60;99.90
2130;DHT22;1071;52.544;13.374;2023-07-20T05:35:17;19.60;99.90
2130;DHT22;1071;52.544;13.374;2023-07-20T05:37:44;19.60;99.90
2130;DHT22;1071;52.544;13.374;2023-07-20T05:40:13;19.60;99.90
2130;DHT22;1071;52.544;13.374;2023-07-20T05:42:44;19.70;99.90
2130;DHT22;1071;52.544;13.374;2023-07-20T05:45:11;19.70;99.90
2130;DHT22;1071;52.544;13.374;2023-07-20T05:47:38;19.80;99.90
2130;DHT22;1071;52.544;13.374;2023-07-20T05:50:07;19.90;99.90
2130;DHT22;1071;52.544;13.374;2023-07-20T05:52:35;19.90;99.90
2130;DHT22;1071;52.544;13.374;2023-07-20T05:55:05;19.90;99.90
2130;DHT22;1071;52.544;13.374;2023-07-20T05:57:32;20.00;99.90
2130;DHT22;1071;52.544;13.374;2023-07-20T05:59:59;20.10;99.90
2130;DHT22;1071;52.544;13.374;2023-07-20T06:02:26;20.10;99.90
2130;DHT22;1071;52.544;13.374;2023-07-20T06:04:53;20.20;99.90
2130;DHT22;1071;52.544;13.374;2023-07-20T06:07:21;20.30;99.90
2130;DHT22;1071;52.544;13.374;2023-07-20T06:09:50;20.20;99.90
2130;DHT22;1071;52.544;13.374;2023-07-20T06:12:16;20.30;99.90
2130;DHT22;1071;52.544;13.374;2023-07-20T06:14:43;20.30;99.90
2130;DHT22;1071;52.544;13.374;2023-07-20T06:17:10;20.40;99.90
2130;DHT22;1071;52.544;13.374;2023-07-20T06:19:37;20.40;99.90
2130;DHT22;1071;52.544;13.374;2023-07-20T06:22:05;20.40;99.90
2130;DHT22;1071;52.544;13.374;2023-07-20T06:24:33;20.50;99.90
2130;DHT22;1071;52.544;13.374;2023-07-20T06:27:00;20.40;99.90
2130;DHT22;1071;52.544;13.374;2023-07-20T06:29:28;20.40;99.90
2130;DHT22;1071;52.544;13.374;2023-07-20T06:31:55;20.40;99.90
2130;DHT22;1071;52.544;13.374;2023-07-20T06:34:21;20.50;99.90
2130;DHT22;1071;52.544;13.374;2023-07-20T06:36:51;20.50;99.90
2130;DHT22;1071;52.544;13.374;2023-07-20T06:39:18;20.50;99.90
2130;DHT22;1071;52.544;13.374;2023-07-20T06:41:46;20.50;99.90
2130;DHT22;1071;52.544;13.374;2023-07-20T06:44:13;20.50;99.90
2130;DHT22;1071;52.544;13.374;2023-07-20T06:46:43;20.50;99.90
2130;DHT22;1071;52.544;13.374;2023-07-20T06:49:10;20.50;99.90
2130;DHT22;1071;52.544;13.374;2023-07-20T06:51:50;20.50;99.90
2130;DHT22;1071;52.544;13.374;2023-07-20T06:54:17;20.50;99.90
2130;DHT22;1071;52.544;13.374;2023-07-20T06:56:43;20.60;99.90
2130;DHT22;1071;52.544;13.374;2023-07-20T06:59:12;20.70;99.90
2130;DHT22;1071;52.544;13.374;2023-07-20T07:01:39;20.90;99.90
2130;DHT22;1071;52.544;13.374;2023-07-20T07:04:06;21.10;99.90
2130;DHT22;1071;52.544;13.374;2023-07-20T07:06:32;21.40;99.90
2130;DHT22;1071;52.544;13.374;2023-07-20T07:09:01;21.60;99.90
2130;DHT22;1071;52.544;13.374;2023-07-20T07:11:31;21.80;99.90
2130;DHT22;1071;52.544;13.374;2023-07-20T07:13:58;22.00;99.90
2130;DHT22;1071;52.544;13.374;2023-07-20T07:16:29;22.10;99.90
2130;DHT22;1071;52.544;13.374;2023-07-20T07:18:56;22.20;99.90
2130;DHT22;1071;52.544;13.374;2023-07-20T07:21:23;22.20;99.90
2130;DHT22;1071;52.544;13.374;2023-07-20T07:23:51;22.20;99.90
2130;DHT22;1071;52.544;13.374;2023-07-20T07:26:18;22.20;99.90
2130;DHT22;1071;52.544;13.374;2023-07-20T07:28:46;22.20;99.90
2130;DHT22;1071;52.544;13.374;2023-07-20T07:31:14;22.30;99.90
2130;DHT22;1071;52.544;13.374;2023-07-20T07:33:42;22.50;99.90
2130;DHT22;1071;52.544;13.374;2023-07-20T07:36:09;22.70;99.90
2130;DHT22;1071;52.544;13.374;2023-07-20T07:38:36;22.80;99.90
2130;DHT22;1071;52.544;13.374;2023-07-20T07:41:03;23.00;99.90
2130;DHT22;1071;52.544;13.374;2023-07-20T07:46:17;23.20;99.90
2130;DHT22;1071;52.544;13.374;2023-07-20T07:48:45;23.30;99.90
2130;DHT22;1071;52.544;13.374;2023-07-20T07:51:13;23.20;99.90
2130;DHT22;1071;52.544;13.374;2023-07-20T07:53:41;23.30;99.90
2130;DHT22;1071;52.544;13.374;2023-07-20T07:56:09;23.30;99.90
2130;DHT22;1071;52.544;13.374;2023-07-20T07:58:39;23.40;99.90
2130;DHT22;1071;52.544;13.374;2023-07-20T08:01:10;23.50;99.90
2130;DHT22;1071;52.544;13.374;2023-07-20T08:03:37;23.60;99.90
2130;DHT22;1071;52.544;13.374;2023-07-20T08:06:08;23.50;99.90
2130;DHT22;1071;52.544;13.374;2023-07-20T08:08:35;23.60;99.90
2130;DHT22;1071;52.544;13.374;2023-07-20T08:11:02;23.60;99.90
2130;DHT22;1071;52.544;13.374;2023-07-20T08:13:32;23.60;99.90
2130;DHT22;1071;52.544;13.374;2023-07-20T08:16:00;23.50;99.90
2130;DHT22;1071;52.544;13.374;2023-07-20T08:18:29;23.40;99.90
2130;DHT22;1071;52.544;13.374;2023-07-20T08:20:56;23.40;99.90
2130;DHT22;1071;52.544;13.374;2023-07-20T08:23:25;23.30;99.90
2130;DHT22;1071;52.544;13.374;2023-07-20T08:25:53;23.30;99.90
2130;DHT22;1071;52.544;13.374;2023-07-20T08:28:20;23.30;99.90
2130;DHT22;1071;52.544;13.374;2023-07-20T08:30:48;23.30;99.90
2130;DHT22;1071;52.544;13.374;2023-07-20T08:33:17;23.50;99.90
2130;DHT22;1071;52.544;13.374;2023-07-20T08:35:45;23.50;99.90
2130;DHT22;1071;52.544;13.374;2023-07-20T08:38:13;23.60;99.90
2130;DHT22;1071;52.544;13.374;2023-07-20T08:40:43;23.70;99.90
2130;DHT22;1071;52.544;13.374;2023-07-20T08:43:11;23.80;99.00
2130;DHT22;1071;52.544;13.374;2023-07-20T08:45:39;23.80;98.80
2130;DHT22;1071;52.544;13.374;2023-07-20T08:48:06;23.90;98.20
2130;DHT22;1071;52.544;13.374;2023-07-20T08:50:34;23.90;98.20
2130;DHT22;1071;52.544;13.374;2023-07-20T08:53:01;23.90;97.70
2130;DHT22;1071;52.544;13.374;2023-07-20T08:55:29;23.90;97.00
2130;DHT22;1071;52.544;13.374;2023-07-20T08:57:59;23.90;96.80
2130;DHT22;1071;52.544;13.374;2023-07-20T09:00:27;23.90;96.70
2130;DHT22;1071;52.544;13.374;2023-07-20T09:02:55;24.00;96.60
2130;DHT22;1071;52.544;13.374;2023-07-20T09:05:23;23.90;96.90
2130;DHT22;1071;52.544;13.374;2023-07-20T09:07:51;23.90;96.80
2130;DHT22;1071;52.544;13.374;2023-07-20T09:10:21;23.90;96.70
2130;DHT22;1071;52.544;13.374;2023-07-20T09:12:48;24.00;96.80
2130;DHT22;1071;52.544;13.374;2023-07-20T09:15:17;24.00;96.50
2130;DHT22;1071;52.544;13.374;2023-07-20T09:17:48;24.10;96.30
2130;DHT22;1071;52.544;13.374;2023-07-20T09:20:16;24.20;96.10
2130;DHT22;1071;52.544;13.374;2023-07-20T09:22:44;24.20;96.00
2130;DHT22;1071;52.544;13.374;2023-07-20T09:25:12;24.20;96.00
2130;DHT22;1071;52.544;13.374;2023-07-20T09:27:42;24.10;96.20
2130;DHT22;1071;52.544;13.374;2023-07-20T09:30:10;24.20;95.50
2130;DHT22;1071;52.544;13.374;2023-07-20T09:32:42;24.20;95.20
2130;DHT22;1071;52.544;13.374;2023-07-20T09:35:16;24.10;95.30
2130;DHT22;1071;52.544;13.374;2023-07-20T09:37:49;24.10;95.30
2130;DHT22;1071;52.544;13.374;2023-07-20T09:40:18;24.10;95.30
2130;DHT22;1071;52.544;13.374;2023-07-20T09:42:46;24.00;95.10
2130;DHT22;1071;52.544;13.374;2023-07-20T09:45:13;23.90;95.10
2130;DHT22;1071;52.544;13.374;2023-07-20T09:47:42;23.80;95.00
2130;DHT22;1071;52.544;13.374;2023-07-20T09:50:09;23.80;95.30
2130;DHT22;1071;52.544;13.374;2023-07-20T09:52:41;23.70;95.50
2130;DHT22;1071;52.544;13.374;2023-07-20T09:55:10;23.60;95.60
2130;DHT22;1071;52.544;13.374;2023-07-20T09:57:38;23.40;96.00
2130;DHT22;1071;52.544;13.374;2023-07-20T10:00:07;23.40;96.40
2130;DHT22;1071;52.544;13.374;2023-07-20T10:02:44;23.30;96.80
2130;DHT22;1071;52.544;13.374;2023-07-20T10:05:12;23.20;97.30
2130;DHT22;1071;52.544;13.374;2023-07-20T10:07:44;23.10;97.90
2130;DHT22;1071;52.544;13.374;2023-07-20T10:10:14;23.00;98.70
2130;DHT22;1071;52.544;13.374;2023-07-20T10:12:44;23.00;99.00
2130;DHT22;1071;52.544;13.374;2023-07-20T10:15:13;22.90;98.50
2130;DHT22;1071;52.544;13.374;2023-07-20T10:18:02;22.90;98.50
2130;DHT22;1071;52.544;13.374;2023-07-20T10:20:30;22.80;98.40
2130;DHT22;1071;52.544;13.374;2023-07-20T10:22:59;22.70;98.40
2130;DHT22;1071;52.544;13.374;2023-07-20T10:25:27;22.70;98.20
2130;DHT22;1071;52.544;13.374;2023-07-20T10:27:55;22.70;98.20
2130;DHT22;1071;52.544;13.374;2023-07-20T10:30:33;22.70;98.00
2130;DHT22;1071;52.544;13.374;2023-07-20T10:33:12;22.70;98.10
2130;DHT22;1071;52.544;13.374;2023-07-20T10:35:53;22.80;98.00
2130;DHT22;1071;52.544;13.374;2023-07-20T10:41:03;22.80;97.80
2130;DHT22;1071;52.544;13.374;2023-07-20T10:43:30;22.80;97.60
2130;DHT22;1071;52.544;13.374;2023-07-20T10:46:00;22.80;97.90
2130;DHT22;1071;52.544;13.374;2023-07-20T10:49:02;22.80;98.00
2130;DHT22;1071;52.544;13.374;2023-07-20T10:51:30;22.90;98.10
2130;DHT22;1071;52.544;13.374;2023-07-20T10:54:09;22.90;98.30
2130;DHT22;1071;52.544;13.374;2023-07-20T10:56:37;23.00;98.40
2130;DHT22;1071;52.544;13.374;2023-07-20T10:59:18;23.00;98.40
2130;DHT22;1071;52.544;13.374;2023-07-20T11:01:47;22.90;98.20
2130;DHT22;1071;52.544;13.374;2023-07-20T11:04:17;22.90;98.30
2130;DHT22;1071;52.544;13.374;2023-07-20T11:06:44;23.00;98.10
2130;DHT22;1071;52.544;13.374;2023-07-20T11:09:13;23.00;97.80
2130;DHT22;1071;52.544;13.374;2023-07-20T11:11:41;23.10;97.60
2130;DHT22;1071;52.544;13.374;2023-07-20T11:14:10;23.20;97.40
2130;DHT22;1071;52.544;13.374;2023-07-20T11:16:47;23.20;97.10
2130;DHT22;1071;52.544;13.374;2023-07-20T11:19:19;23.30;97.20
2130;DHT22;1071;52.544;13.374;2023-07-20T11:21:49;23.30;96.60
2130;DHT22;1071;52.544;13.374;2023-07-20T11:24:17;23.30;96.80
2130;DHT22;1071;52.544;13.374;2023-07-20T11:26:45;23.40;97.00
2130;DHT22;1071;52.544;13.374;2023-07-20T11:29:16;23.40;97.10
2130;DHT22;1071;52.544;13.374;2023-07-20T11:31:45;23.40;97.30
2130;DHT22;1071;52.544;13.374;2023-07-20T11:34:14;23.50;97.40
2130;DHT22;1071;52.544;13.374;2023-07-20T11:36:43;23.50;97.30
2130;DHT22;1071;52.544;13.374;2023-07-20T11:39:11;23.60;96.90
2130;DHT22;1071;52.544;13.374;2023-07-20T11:41:41;23.60;96.40
2130;DHT22;1071;52.544;13.374;2023-07-20T11:44:10;23.70;96.40
2130;DHT22;1071;52.544;13.374;2023-07-20T11:46:41;23.80;96.50
2130;DHT22;1071;52.544;13.374;2023-07-20T11:49:09;23.80;96.20
2130;DHT22;1071;52.544;13.374;2023-07-20T11:51:37;23.90;95.90
2130;DHT22;1071;52.544;13.374;2023-07-20T11:54:08;24.00;95.00
2130;DHT22;1071;52.544;13.374;2023-07-20T11:56:36;24.20;94.00
2130;DHT22;1071;52.544;13.374;2023-07-20T11:59:10;24.20;94.20
2130;DHT22;1071;52.544;13.374;2023-07-20T12:01:38;24.20;93.90
2130;DHT22;1071;52.544;13.374;2023-07-20T12:04:05;24.10;94.10
2130;DHT22;1071;52.544;13.374;2023-07-20T12:06:33;24.10;94.20
2130;DHT22;1071;52.544;13.374;2023-07-20T12:09:00;24.00;94.70
2130;DHT22;1071;52.544;13.374;2023-07-20T12:11:34;23.90;94.90
2130;DHT22;1071;52.544;13.374;2023-07-20T12:14:02;23.90;95.20
2130;DHT22;1071;52.544;13.374;2023-07-20T12:16:30;23.80;95.20
2130;DHT22;1071;52.544;13.374;2023-07-20T12:19:04;23.60;95.40
2130;DHT22;1071;52.544;13.374;2023-07-20T12:21:33;23.50;95.70
2130;DHT22;1071;52.544;13.374;2023-07-20T12:24:01;23.30;96.10
2130;DHT22;1071;52.544;13.374;2023-07-20T12:26:29;23.30;96.20
2130;DHT22;1071;52.544;13.374;2023-07-20T12:28:58;23.30;96.40
2130;DHT22;1071;52.544;13.374;2023-07-20T12:31:26;23.30;96.40
2130;DHT22;1071;52.544;13.374;2023-07-20T12:33:53;23.40;96.40
2130;DHT22;1071;52.544;13.374;2023-07-20T12:36:23;23.40;96.30
2130;DHT22;1071;52.544;13.374;2023-07-20T12:38:59;23.40;96.10
2130;DHT22;1071;52.544;13.374;2023-07-20T12:41:27;23.40;95.80
2130;DHT22;1071;52.544;13.374;2023-07-20T12:43:57;23.30;95.30
2130;DHT22;1071;52.544;13.374;2023-07-20T12:49:41;23.40;93.90
2130;DHT22;1071;52.544;13.374;2023-07-20T12:52:10;23.40;94.20
2130;DHT22;1071;52.544;13.374;2023-07-20T12:54:38;23.40;94.50
2130;DHT22;1071;52.544;13.374;2023-07-20T12:57:06;23.40;94.70
2130;DHT22;1071;52.544;13.374;2023-07-20T13:00:09;23.40;94.90
2130;DHT22;1071;52.544;13.374;2023-07-20T13:02:43;23.40;94.70
2130;DHT22;1071;52.544;13.374;2023-07-20T13:05:10;23.40;93.70
2130;DHT22;1071;52.544;13.374;2023-07-20T13:07:40;23.40;93.20
2130;DHT22;1071;52.544;13.374;2023-07-20T13:10:09;23.50;93.10
2130;DHT22;1071;52.544;13.374;2023-07-20T13:12:39;23.60;92.70
2130;DHT22;1071;52.544;13.374;2023-07-20T13:15:10;23.60;91.70
2130;DHT22;1071;52.544;13.374;2023-07-20T13:17:38;23.60;91.00
2130;DHT22;1071;52.544;13.374;2023-07-20T13:20:07;23.70;90.20
2130;DHT22;1071;52.544;13.374;2023-07-20T13:22:35;23.70;90.10
2130;DHT22;1071;52.544;13.374;2023-07-20T13:25:03;23.70;89.40
2130;DHT22;1071;52.544;13.374;2023-07-20T13:27:30;23.80;89.00
2130;DHT22;1071;52.544;13.374;2023-07-20T13:29:57;23.80;85.70
2130;DHT22;1071;52.544;13.374;2023-07-20T13:32:26;23.90;84.90
2130;DHT22;1071;52.544;13.374;2023-07-20T13:34:53;23.90;85.10
2130;DHT22;1071;52.544;13.374;2023-07-20T13:37:21;23.90;84.90
2130;DHT22;1071;52.544;13.374;2023-07-20T13:39:55;24.00;84.20
2130;DHT22;1071;52.544;13.374;2023-07-20T13:42:22;24.00;83.40
2130;DHT22;1071;52.544;13.374;2023-07-20T13:44:49;23.90;83.20
2130;DHT22;1071;52.544;13.374;2023-07-20T13:47:16;23.90;82.90
2130;DHT22;1071;52.544;13.374;2023-07-20T13:49:45;23.90;82.60
2130;DHT22;1071;52.544;13.374;2023-07-20T13:52:12;23.90;81.90
2130;DHT22;1071;52.544;13.374;2023-07-20T13:54:39;23.90;81.20
2130;DHT22;1071;52.544;13.374;2023-07-20T13:57:06;23.90;80.60
2130;DHT22;1071;52.544;13.374;2023-07-20T13:59:33;24.00;79.70
2130;DHT22;1071;52.544;13.374;2023-07-20T14:02:00;24.00;79.30
2130;DHT22;1071;52.544;13.374;2023-07-20T14:04:27;24.10;79.10
2130;DHT22;1071;52.544;13.374;2023-07-20T14:06:55;24.10;78.60
2130;DHT22;1071;52.544;13.374;2023-07-20T14:09:22;24.10;78.90
2130;DHT22;1071;52.544;13.374;2023-07-20T14:11:50;24.10;78.70
2130;DHT22;1071;52.544;13.374;2023-07-20T14:14:17;24.20;79.10
2130;DHT22;1071;52.544;13.374;2023-07-20T14:16:44;24.10;79.30
2130;DHT22;1071;52.544;13.374;2023-07-20T14:19:13;24.20;79.50
2130;DHT22;1071;52.544;13.374;2023-07-20T14:21:40;24.10;79.40
2130;DHT22;1071;52.544;13.374;2023-07-20T14:24:08;24.10;78.60
2130;DHT22;1071;52.544;13.374;2023-07-20T14:26:35;24.10;78.00
2130;DHT22;1071;52.544;13.374;2023-07-20T14:29:02;24.20;78.40
2130;DHT22;1071;52.544;13.374;2023-07-20T14:31:29;24.20;78.70
2130;DHT22;1071;52.544;13.374;2023-07-20T14:33:56;24.20;79.10
2130;DHT22;1071;52.544;13.374;2023-07-20T14:36:23;24.30;77.20
2130;DHT22;1071;52.544;13.374;2023-07-20T14:38:50;24.30;75.60
2130;DHT22;1071;52.544;13.374;2023-07-20T14:41:19;24.40;75.40
2130;DHT22;1071;52.544;13.374;2023-07-20T14:43:46;24.40;75.80
2130;DHT22;1071;52.544;13.374;2023-07-20T14:46:13;24.40;75.20
2130;DHT22;1071;52.544;13.374;2023-07-20T14:48:41;24.50;76.30
2130;DHT22;1071;52.544;13.374;2023-07-20T14:51:08;24.50;74.20
2130;DHT22;1071;52.544;13.374;2023-07-20T14:53:36;24.50;73.30
2130;DHT22;1071;52.544;13.374;2023-07-20T14:56:03;24.50;73.50
2130;DHT22;1071;52.544;13.374;2023-07-20T14:58:35;24.50;73.00
2130;DHT22;1071;52.544;13.374;2023-07-20T15:01:02;24.50;72.70
2130;DHT22;1071;52.544;13.374;2023-07-20T15:03:29;24.50;73.10
2130;DHT22;1071;52.544;13.374;2023-07-20T15:05:57;24.50;73.30
2130;DHT22;1071;52.544;13.374;2023-07-20T15:08:24;24.50;73.20
2130;DHT22;1071;52.544;13.374;2023-07-20T15:10:51;24.50;74.10
2130;DHT22;1071;52.544;13.374;2023-07-20T15:13:18;24.50;74.80
2130;DHT22;1071;52.544;13.374;2023-07-20T15:15:46;24.50;73.80
2130;DHT22;1071;52.544;13.374;2023-07-20T15:18:13;24.40;73.60
2130;DHT22;1071;52.544;13.374;2023-07-20T15:20:40;24.40;73.80
2130;DHT22;1071;52.544;13.374;2023-07-20T15:23:07;24.40;73.80
2130;DHT22;1071;52.544;13.374;2023-07-20T15:25:36;24.30;73.40
2130;DHT22;1071;52.544;13.374;2023-07-20T15:28:03;24.30;73.80
2130;DHT22;1071;52.544;13.374;2023-07-20T15:30:30;24.30;73.60
2130;DHT22;1071;52.544;13.374;2023-07-20T15:33:03;24.30;73.80
2130;DHT22;1071;52.544;13.374;2023-07-20T15:35:36;24.20;73.60
2130;DHT22;1071;52.544;13.374;2023-07-20T15:38:05;24.20;72.70
2130;DHT22;1071;52.544;13.374;2023-07-20T15:40:33;24.20;72.30
2130;DHT22;1071;52.544;13.374;2023-07-20T15:43:00;24.20;72.50
2130;DHT22;1071;52.544;13.374;2023-07-20T15:45:28;24.20;72.40
2130;DHT22;1071;52.544;13.374;2023-07-20T15:47:55;24.20;72.70
2130;DHT22;1071;52.544;13.374;2023-07-20T15:50:24;24.20;72.00
2130;DHT22;1071;52.544;13.374;2023-07-20T15:52:52;24.20;72.00
2130;DHT22;1071;52.544;13.374;2023-07-20T15:55:19;24.20;71.70
2130;DHT22;1071;52.544;13.374;2023-07-20T15:57:48;24.20;71.80
2130;DHT22;1071;52.544;13.374;2023-07-20T16:00:16;24.20;71.70
2130;DHT22;1071;52.544;13.374;2023-07-20T16:02:43;24.20;71.90